createdAt,value
2022-10-09T00:01:06.744Z,16.67
2022-10-09T00:03:34.534Z,15.85
2022-10-09T00:06:01.573Z,11.18
2022-10-09T00:08:28.544Z,12.13
2022-10-09T00:10:55.422Z,12.13
2022-10-09T00:13:22.552Z,11.23
2022-10-09T00:15:49.315Z,9.90
2022-10-09T00:18:18.153Z,16.85
2022-10-09T00:20:46.484Z,12.02
2022-10-09T00:23:16.605Z,13.27
2022-10-09T00:26:01.592Z,13.57
2022-10-09T00:28:33.385Z,12.77
2022-10-09T00:31:08.117Z,12.07
2022-10-09T00:33:36.053Z,13.75
2022-10-09T00:36:09.119Z,13.88
2022-10-09T00:38:35.931Z,10.32
2022-10-09T00:41:03.013Z,11.60
2022-10-09T00:43:48.588Z,11.27
2022-10-09T00:46:30.097Z,12.00
2022-10-09T00:49:05.366Z,13.23
2022-10-09T00:51:34.078Z,13.20
2022-10-09T00:54:03.910Z,12.27
2022-10-09T00:56:30.831Z,13.40
2022-10-09T00:58:59.345Z,11.98
2022-10-09T01:01:28.135Z,14.85
2022-10-09T01:03:54.897Z,12.98
2022-10-09T01:06:56.040Z,14.68
2022-10-09T01:09:35.332Z,11.07
2022-10-09T01:12:41.001Z,10.57
2022-10-09T01:15:32.432Z,12.40
2022-10-09T01:18:29.410Z,10.00
2022-10-09T01:21:14.329Z,9.38
2022-10-09T01:23:59.436Z,8.65
2022-10-09T01:26:51.591Z,15.93
2022-10-09T01:29:23.363Z,10.23
2022-10-09T01:31:51.816Z,11.93
2022-10-09T01:34:20.873Z,12.35
2022-10-09T01:36:48.015Z,7.85
2022-10-09T01:39:19.970Z,10.70
2022-10-09T01:41:48.414Z,11.35
2022-10-09T01:44:19.472Z,10.43
2022-10-09T01:46:46.747Z,11.18
2022-10-09T01:49:21.455Z,12.45
2022-10-09T01:52:10.481Z,11.82
2022-10-09T01:54:53.654Z,9.93
2022-10-09T01:57:29.632Z,11.93
2022-10-09T01:59:59.570Z,10.80
2022-10-09T02:02:27.481Z,11.45
2022-10-09T02:04:54.812Z,8.07
2022-10-09T02:07:24.099Z,10.52
2022-10-09T02:09:51.577Z,8.48
2022-10-09T02:12:20.666Z,10.57
2022-10-09T02:14:47.439Z,11.48
2022-10-09T02:17:20.266Z,7.20
2022-10-09T02:19:58.712Z,9.75
2022-10-09T02:22:30.829Z,11.90
2022-10-09T02:25:00.010Z,9.48
2022-10-09T02:27:27.462Z,9.23
2022-10-09T02:29:54.967Z,10.38
2022-10-09T02:32:22.947Z,12.23
2022-10-09T02:34:49.676Z,8.85
2022-10-09T02:37:16.480Z,7.90
2022-10-09T02:39:43.748Z,12.27
2022-10-09T02:42:10.711Z,9.45
2022-10-09T02:44:39.641Z,10.27
2022-10-09T02:47:06.400Z,7.32
2022-10-09T02:49:33.094Z,10.88
2022-10-09T02:51:59.836Z,10.65
2022-10-09T02:54:26.518Z,14.00
2022-10-09T02:56:53.165Z,10.05
2022-10-09T02:59:19.863Z,8.85
2022-10-09T03:01:46.651Z,10.73
2022-10-09T03:04:13.617Z,15.60
2022-10-09T03:06:40.386Z,9.80
2022-10-09T03:09:09.545Z,10.60
2022-10-09T03:11:36.277Z,10.82
2022-10-09T03:14:03.054Z,9.45
2022-10-09T03:16:29.855Z,10.90
2022-10-09T03:18:56.700Z,10.60
2022-10-09T03:21:26.316Z,11.23
2022-10-09T03:23:53.905Z,12.20
2022-10-09T03:26:23.793Z,10.65
2022-10-09T03:28:51.799Z,9.73
2022-10-09T03:31:46.940Z,10.02
2022-10-09T03:34:07.357Z,9.65
2022-10-09T03:36:34.110Z,12.07
2022-10-09T03:39:00.870Z,13.55
2022-10-09T03:41:27.585Z,10.02
2022-10-09T03:43:54.376Z,12.38
2022-10-09T03:46:21.132Z,10.05
2022-10-09T03:48:47.954Z,10.40
2022-10-09T03:51:14.679Z,9.10
2022-10-09T03:53:41.337Z,10.00
2022-10-09T03:56:08.023Z,8.60
2022-10-09T03:58:34.837Z,10.95
2022-10-09T04:01:01.687Z,9.38
2022-10-09T04:03:28.921Z,10.63
2022-10-09T04:05:55.636Z,11.05
2022-10-09T04:08:22.315Z,8.73
2022-10-09T04:10:59.365Z,11.77
2022-10-09T04:13:26.338Z,12.48
2022-10-09T04:15:54.337Z,12.45
2022-10-09T04:18:21.593Z,11.00
2022-10-09T04:20:53.216Z,11.52
2022-10-09T04:23:22.532Z,9.02
2022-10-09T04:25:53.859Z,10.65
2022-10-09T04:28:21.036Z,9.60
2022-10-09T04:30:47.799Z,11.88
2022-10-09T04:33:14.656Z,11.70
2022-10-09T04:35:46.082Z,10.52
2022-10-09T04:38:12.808Z,13.75
2022-10-09T04:40:39.541Z,12.45
2022-10-09T04:43:06.326Z,12.65
2022-10-09T04:45:33.349Z,10.75
2022-10-09T04:48:00.341Z,13.55
2022-10-09T04:50:27.008Z,11.73
2022-10-09T04:52:53.762Z,11.15
2022-10-09T04:55:20.528Z,8.48
2022-10-09T04:57:47.176Z,7.32
2022-10-09T05:00:14.432Z,12.45
2022-10-09T05:02:41.091Z,7.78
2022-10-09T05:05:08.322Z,13.90
2022-10-09T05:07:35.053Z,12.05
2022-10-09T05:10:01.895Z,12.73
2022-10-09T05:12:28.525Z,11.77
2022-10-09T05:14:55.257Z,12.82
2022-10-09T05:17:23.568Z,11.77
2022-10-09T05:19:50.528Z,9.90
2022-10-09T05:22:17.240Z,9.05
2022-10-09T05:24:43.971Z,8.95
2022-10-09T05:27:10.689Z,7.80
2022-10-09T05:29:37.433Z,9.48
2022-10-09T05:32:04.256Z,8.88
2022-10-09T05:34:31.172Z,8.32
2022-10-09T05:36:57.792Z,9.18
2022-10-09T05:39:24.719Z,10.65
2022-10-09T05:41:53.775Z,8.68
2022-10-09T05:44:20.578Z,12.57
2022-10-09T05:46:47.237Z,11.05
2022-10-09T05:49:14.025Z,12.68
2022-10-09T05:51:44.302Z,9.35
2022-10-09T05:54:16.679Z,8.63
2022-10-09T05:56:44.591Z,9.50
2022-10-09T05:59:14.963Z,9.02
2022-10-09T06:01:44.727Z,10.82
2022-10-09T06:04:16.661Z,13.95
2022-10-09T06:06:44.422Z,13.30
2022-10-09T06:09:12.155Z,10.02
2022-10-09T06:11:40.466Z,11.00
2022-10-09T06:14:09.457Z,8.63
2022-10-09T06:16:38.865Z,8.38
2022-10-09T06:19:07.065Z,14.93
2022-10-09T06:21:34.654Z,9.88
2022-10-09T06:24:03.643Z,11.45
2022-10-09T06:26:30.962Z,8.35
2022-10-09T06:28:59.740Z,12.00
2022-10-09T06:31:28.730Z,8.30
2022-10-09T06:33:56.012Z,11.38
2022-10-09T06:36:27.563Z,8.95
2022-10-09T06:38:55.044Z,11.52
2022-10-09T06:41:24.436Z,11.98
2022-10-09T06:43:53.733Z,9.95
2022-10-09T06:46:22.246Z,11.40
2022-10-09T06:48:49.078Z,8.48
2022-10-09T06:51:18.557Z,8.88
2022-10-09T06:53:47.905Z,12.07
2022-10-09T06:56:16.136Z,8.30
2022-10-09T06:58:43.292Z,9.63
2022-10-09T07:01:16.377Z,8.02
2022-10-09T07:03:45.066Z,8.90
2022-10-09T07:06:16.057Z,8.07
2022-10-09T07:08:45.414Z,8.02
2022-10-09T07:11:14.561Z,8.27
2022-10-09T07:13:42.214Z,8.77
2022-10-09T07:16:10.459Z,7.60
2022-10-09T07:18:37.960Z,8.25
2022-10-09T07:21:07.223Z,7.90
2022-10-09T07:23:35.453Z,11.23
2022-10-09T07:26:08.924Z,8.70
2022-10-09T07:28:35.793Z,10.90
2022-10-09T07:31:06.851Z,8.63
2022-10-09T07:33:33.846Z,9.65
2022-10-09T07:36:02.127Z,8.52
2022-10-09T07:38:29.335Z,9.98
2022-10-09T07:41:01.715Z,10.23
2022-10-09T07:43:28.783Z,9.60
2022-10-09T07:46:02.300Z,7.93
2022-10-09T07:48:29.611Z,11.43
2022-10-09T07:50:56.455Z,8.80
2022-10-09T07:53:23.525Z,9.20
2022-10-09T07:55:50.256Z,9.20
2022-10-09T07:58:17.652Z,12.10
2022-10-09T08:00:44.609Z,7.68
2022-10-09T08:03:11.518Z,11.48
2022-10-09T08:05:38.283Z,7.57
2022-10-09T08:08:05.028Z,9.65
2022-10-09T08:10:32.599Z,9.10
2022-10-09T08:12:59.328Z,10.65
2022-10-09T08:15:29.561Z,7.88
2022-10-09T08:17:56.368Z,8.85
2022-10-09T08:20:23.238Z,7.60
2022-10-09T08:22:50.496Z,8.32
2022-10-09T08:25:17.525Z,10.27
2022-10-09T08:27:44.323Z,8.90
2022-10-09T08:30:11.400Z,11.68
2022-10-09T08:32:38.293Z,10.13
2022-10-09T08:35:05.480Z,7.20
2022-10-09T08:37:32.342Z,8.63
2022-10-09T08:39:59.696Z,9.60
2022-10-09T08:42:52.529Z,8.32
2022-10-09T08:45:19.845Z,8.13
2022-10-09T08:47:52.455Z,9.20
2022-10-09T08:50:24.381Z,6.93
2022-10-09T08:52:51.536Z,5.70
2022-10-09T08:55:36.844Z,8.80
2022-10-09T08:58:05.840Z,9.82
2022-10-09T09:00:44.552Z,8.52
2022-10-09T09:03:55.755Z,9.48
2022-10-09T09:06:54.906Z,8.50
2022-10-09T09:09:40.332Z,8.88
2022-10-09T09:12:12.440Z,6.88
2022-10-09T09:15:20.395Z,9.32
2022-10-09T09:18:11.839Z,9.88
2022-10-09T09:21:04.956Z,6.95
2022-10-09T09:29:06.458Z,8.75
2022-10-09T09:40:38.110Z,7.45
2022-10-09T09:43:19.827Z,8.25
2022-10-09T09:45:47.564Z,8.75
2022-10-09T09:48:42.232Z,6.60
2022-10-09T09:51:29.946Z,5.93
2022-10-09T09:54:17.087Z,8.02
2022-10-09T09:59:37.510Z,8.15
2022-10-09T10:02:14.816Z,7.75
2022-10-09T10:05:02.039Z,5.80
2022-10-09T10:07:38.760Z,8.07
2022-10-09T10:10:28.812Z,6.63
2022-10-09T10:13:00.735Z,7.95
2022-10-09T10:15:32.886Z,6.30
2022-10-09T10:18:12.497Z,10.25
2022-10-09T10:20:47.054Z,8.18
2022-10-09T10:23:29.983Z,6.18
2022-10-09T10:25:59.346Z,5.43
2022-10-09T10:28:32.094Z,6.28
2022-10-09T10:31:02.016Z,7.70
2022-10-09T10:33:36.957Z,8.10
2022-10-09T10:36:05.087Z,6.22
2022-10-09T10:38:37.530Z,7.25
2022-10-09T10:41:20.186Z,6.35
2022-10-09T10:44:02.853Z,6.05
2022-10-09T10:46:58.964Z,6.50
2022-10-09T10:52:20.512Z,7.80
2022-10-09T10:55:09.331Z,5.97
2022-10-09T10:57:41.382Z,7.93
2022-10-09T11:00:11.551Z,4.97
2022-10-09T11:02:56.960Z,6.00
2022-10-09T11:05:28.986Z,4.70
2022-10-09T11:08:23.865Z,3.80
2022-10-09T11:11:14.083Z,8.02
2022-10-09T11:13:47.730Z,7.68
2022-10-09T11:16:48.468Z,5.65
2022-10-09T11:19:46.322Z,7.35
2022-10-09T11:23:00.161Z,5.22
2022-10-09T11:25:49.667Z,5.82
2022-10-09T11:28:22.353Z,4.65
2022-10-09T11:30:59.025Z,5.07
2022-10-09T11:33:50.115Z,6.53
2022-10-09T11:36:44.064Z,4.68
2022-10-09T11:39:22.506Z,5.57
2022-10-09T11:41:56.523Z,4.45
2022-10-09T11:44:57.772Z,5.00
2022-10-09T11:50:57.676Z,3.95
2022-10-09T11:53:39.862Z,4.80
2022-10-09T11:56:18.971Z,3.95
2022-10-09T11:59:00.207Z,4.25
2022-10-09T12:01:31.919Z,5.38
2022-10-09T12:04:43.598Z,3.70
2022-10-09T12:07:13.282Z,4.38
2022-10-09T12:09:43.493Z,3.05
2022-10-09T12:12:16.426Z,3.10
2022-10-09T12:14:45.852Z,5.40
2022-10-09T12:17:33.159Z,5.03
2022-10-09T12:20:16.973Z,3.45
2022-10-09T12:23:07.411Z,5.80
2022-10-09T12:25:45.985Z,5.43
2022-10-09T12:28:28.023Z,3.72
2022-10-09T12:30:57.049Z,2.75
2022-10-09T12:33:34.157Z,4.05
2022-10-09T12:36:09.470Z,3.20
2022-10-09T12:38:36.592Z,3.92
2022-10-09T12:41:08.287Z,3.38
2022-10-09T12:43:47.866Z,3.50
2022-10-09T12:46:15.042Z,3.83
2022-10-09T12:48:43.613Z,4.47
2022-10-09T12:51:23.223Z,2.80
2022-10-09T12:53:52.595Z,5.30
2022-10-09T12:56:31.560Z,4.15
2022-10-09T12:58:59.715Z,2.95
2022-10-09T13:01:27.228Z,2.78
2022-10-09T13:04:05.388Z,2.83
2022-10-09T13:06:53.163Z,3.60
2022-10-09T13:09:39.607Z,2.88
2022-10-09T13:12:17.843Z,3.58
2022-10-09T13:14:59.438Z,3.40
2022-10-09T13:23:36.006Z,3.88
2022-10-09T13:26:10.149Z,4.03
2022-10-09T13:28:37.957Z,3.17
2022-10-09T13:33:41.620Z,3.20
2022-10-09T13:36:11.568Z,3.75
2022-10-09T13:41:23.705Z,3.05
2022-10-09T13:49:10.415Z,3.90
2022-10-09T13:51:37.553Z,4.95
2022-10-09T13:54:04.547Z,4.40
2022-10-09T13:56:32.156Z,5.18
2022-10-09T14:01:49.403Z,5.40
2022-10-09T14:04:17.281Z,3.33
2022-10-09T14:06:44.157Z,4.10
2022-10-09T14:09:16.157Z,3.20
2022-10-09T14:11:43.070Z,2.88
2022-10-09T14:14:09.917Z,3.70
2022-10-09T14:16:36.875Z,3.33
2022-10-09T14:19:05.214Z,5.90
2022-10-09T14:21:32.373Z,3.72
2022-10-09T14:24:01.827Z,4.30
2022-10-09T14:26:29.691Z,3.50
2022-10-09T14:29:00.188Z,2.53
2022-10-09T14:31:27.730Z,3.90
2022-10-09T14:33:58.122Z,2.92
2022-10-09T14:36:25.835Z,5.22
2022-10-09T14:38:53.235Z,3.17
2022-10-09T14:41:21.881Z,2.88
2022-10-09T14:43:56.235Z,3.78
2022-10-09T14:46:24.101Z,4.95
2022-10-09T14:48:51.553Z,5.60
2022-10-09T14:51:21.188Z,4.70
2022-10-09T14:53:48.388Z,3.10
2022-10-09T14:56:20.076Z,4.72
2022-10-09T14:58:47.552Z,3.25
2022-10-09T15:01:19.531Z,3.95
2022-10-09T15:03:48.329Z,3.28
2022-10-09T15:06:17.734Z,3.55
2022-10-09T15:08:45.538Z,3.55
2022-10-09T15:11:12.973Z,3.67
2022-10-09T15:13:40.312Z,3.53
2022-10-09T15:16:12.844Z,3.45
2022-10-09T15:18:40.410Z,4.07
2022-10-09T15:21:22.935Z,4.75
2022-10-09T15:23:50.646Z,4.40
2022-10-09T15:26:19.593Z,5.75
2022-10-09T15:28:46.414Z,5.07
2022-10-09T15:31:37.559Z,4.95
2022-10-09T15:34:05.297Z,3.75
2022-10-09T15:36:36.209Z,3.83
2022-10-09T15:39:07.204Z,4.65
2022-10-09T15:41:38.769Z,2.90
2022-10-09T15:44:14.726Z,3.25
2022-10-09T15:46:41.612Z,4.13
2022-10-09T15:49:08.756Z,4.50
2022-10-09T15:51:38.356Z,3.03
2022-10-09T15:54:05.712Z,3.35
2022-10-09T15:56:35.963Z,4.15
2022-10-09T15:59:10.441Z,3.38
2022-10-09T16:01:37.299Z,3.60
2022-10-09T16:04:04.116Z,5.78
2022-10-09T16:06:33.048Z,4.90
2022-10-09T16:09:00.939Z,3.85
2022-10-09T16:11:27.584Z,5.30
2022-10-09T16:13:55.042Z,4.38
2022-10-09T16:16:24.180Z,3.97
2022-10-09T16:18:51.716Z,5.40
2022-10-09T16:21:28.618Z,5.88
2022-10-09T16:23:58.888Z,4.07
2022-10-09T16:26:28.109Z,6.00
2022-10-09T16:28:58.813Z,9.90
2022-10-09T16:31:28.652Z,7.13
2022-10-09T16:33:56.396Z,5.38
2022-10-09T16:36:28.292Z,4.13
2022-10-09T16:38:56.250Z,7.63
2022-10-09T16:41:23.684Z,4.68
2022-10-09T16:43:53.184Z,5.65
2022-10-09T16:46:21.598Z,4.68
2022-10-09T16:48:49.707Z,5.30
2022-10-09T16:51:21.833Z,8.30
2022-10-09T16:53:52.667Z,5.13
2022-10-09T16:56:22.615Z,5.18
2022-10-09T16:58:53.336Z,4.93
2022-10-09T17:01:22.494Z,9.40
2022-10-09T17:03:56.434Z,6.32
2022-10-09T17:06:28.956Z,5.75
2022-10-09T17:08:58.409Z,3.72
2022-10-09T17:11:33.358Z,4.00
2022-10-09T17:14:00.517Z,7.28
2022-10-09T17:16:31.434Z,3.63
2022-10-09T17:18:58.852Z,4.90
2022-10-09T17:21:27.948Z,5.30
2022-10-09T17:24:02.339Z,5.85
2022-10-09T17:26:34.502Z,8.43
2022-10-09T17:29:02.277Z,3.70
2022-10-09T17:31:31.805Z,4.35
2022-10-09T17:34:01.071Z,7.30
2022-10-09T17:36:33.506Z,5.45
2022-10-09T17:39:03.502Z,4.22
2022-10-09T17:41:30.410Z,5.05
2022-10-09T17:43:57.532Z,5.55
2022-10-09T17:46:26.405Z,4.13
2022-10-09T17:48:53.466Z,5.15
2022-10-09T17:51:27.123Z,5.72
2022-10-09T17:56:25.276Z,6.00
2022-10-09T17:58:52.806Z,4.30
2022-10-09T18:01:19.586Z,4.15
2022-10-09T18:03:46.446Z,4.97
2022-10-09T18:06:16.175Z,5.00
2022-10-09T18:08:44.190Z,6.13
2022-10-09T18:11:14.647Z,7.38
2022-10-09T18:13:43.470Z,6.63
2022-10-09T18:16:14.399Z,5.55
2022-10-09T18:18:41.261Z,4.68
2022-10-09T18:21:11.228Z,7.18
2022-10-09T18:23:38.679Z,6.35
2022-10-09T18:26:10.926Z,4.75
2022-10-09T18:28:38.408Z,5.65
2022-10-09T18:31:10.611Z,4.05
2022-10-09T18:33:37.435Z,4.75
2022-10-09T18:36:07.430Z,7.43
2022-10-09T18:38:34.645Z,5.43
2022-10-09T18:41:02.106Z,4.35
2022-10-09T18:43:29.411Z,5.72
2022-10-09T18:46:04.657Z,4.47
2022-10-09T18:48:34.593Z,6.90
2022-10-09T18:51:02.503Z,4.80
2022-10-09T18:53:30.800Z,5.22
2022-10-09T18:55:57.944Z,3.83
2022-10-09T18:58:25.993Z,4.22
2022-10-09T19:00:52.769Z,7.03
2022-10-09T19:03:19.619Z,5.60
2022-10-09T19:05:46.406Z,4.93
2022-10-09T19:08:13.176Z,4.18
2022-10-09T19:10:40.032Z,3.83
2022-10-09T19:13:06.798Z,5.25
2022-10-09T19:15:33.488Z,4.95
2022-10-09T19:18:00.237Z,5.93
2022-10-09T19:20:28.962Z,6.63
2022-10-09T19:22:55.726Z,4.80
2022-10-09T19:25:22.696Z,5.63
2022-10-09T19:27:49.800Z,5.03
2022-10-09T19:30:24.216Z,6.03
2022-10-09T19:32:53.695Z,6.10
2022-10-09T19:35:20.451Z,5.47
2022-10-09T19:37:47.486Z,7.53
2022-10-09T19:40:14.463Z,7.28
2022-10-09T19:42:41.169Z,5.78
2022-10-09T19:45:08.663Z,3.92
2022-10-09T19:47:35.416Z,4.97
2022-10-09T19:50:02.147Z,7.15
2022-10-09T19:52:28.937Z,4.60
2022-10-09T19:54:55.630Z,10.65
2022-10-09T19:57:22.384Z,17.52
2022-10-09T19:59:49.145Z,6.13
2022-10-09T20:02:15.878Z,6.65
2022-10-09T20:04:42.662Z,5.05
2022-10-09T20:07:12.793Z,5.05
2022-10-09T20:09:39.947Z,6.28
2022-10-09T20:12:10.017Z,6.47
2022-10-09T20:14:36.754Z,4.25
2022-10-09T20:17:03.461Z,6.15
2022-10-09T20:19:31.590Z,5.45
2022-10-09T20:21:58.513Z,6.78
2022-10-09T20:24:25.352Z,4.75
2022-10-09T20:26:52.096Z,6.80
2022-10-09T20:29:19.110Z,3.90
2022-10-09T20:31:45.889Z,5.85
2022-10-09T20:34:15.409Z,7.32
2022-10-09T20:36:42.287Z,5.88
2022-10-09T20:39:13.178Z,5.40
2022-10-09T20:41:42.417Z,5.88
2022-10-09T20:44:09.545Z,5.40
2022-10-09T20:46:38.776Z,5.75
2022-10-09T20:49:10.724Z,6.63
2022-10-09T20:51:38.337Z,5.88
2022-10-09T20:54:06.391Z,9.00
2022-10-09T20:56:34.152Z,5.13
2022-10-09T20:59:01.572Z,5.05
2022-10-09T21:01:28.935Z,6.35
2022-10-09T21:03:57.040Z,6.45
2022-10-09T21:06:23.959Z,6.95
2022-10-09T21:08:50.782Z,6.32
2022-10-09T21:11:18.540Z,8.77
2022-10-09T21:13:46.210Z,7.00
2022-10-09T21:16:15.694Z,5.75
2022-10-09T21:18:42.706Z,5.05
2022-10-09T21:21:13.687Z,8.07
2022-10-09T21:23:41.659Z,6.88
2022-10-09T21:26:13.247Z,5.50
2022-10-09T21:28:40.066Z,7.30
2022-10-09T21:31:11.633Z,9.98
2022-10-09T21:33:38.435Z,8.10
2022-10-09T21:36:13.508Z,4.90
2022-10-09T21:38:42.711Z,5.65
2022-10-09T21:41:09.457Z,5.00
2022-10-09T21:43:36.196Z,6.85
2022-10-09T21:46:06.051Z,7.95
2022-10-09T21:48:32.814Z,8.15
2022-10-09T21:50:59.584Z,5.13
2022-10-09T21:53:26.317Z,6.70
2022-10-09T21:55:53.015Z,6.30
2022-10-09T21:58:19.793Z,7.20
2022-10-09T22:00:46.614Z,6.95
2022-10-09T22:03:13.326Z,5.40
2022-10-09T22:05:40.704Z,4.85
2022-10-09T22:08:07.525Z,4.72
2022-10-09T22:10:34.268Z,5.15
2022-10-09T22:13:01.024Z,5.95
2022-10-09T22:15:27.713Z,5.05
2022-10-09T22:17:54.458Z,5.35
2022-10-09T22:20:21.183Z,5.20
2022-10-09T22:22:50.280Z,6.22
2022-10-09T22:25:17.232Z,7.85
2022-10-09T22:27:43.960Z,6.60
2022-10-09T22:30:11.382Z,5.00
2022-10-09T22:32:38.075Z,5.60
2022-10-09T22:35:05.102Z,5.40
2022-10-09T22:37:32.066Z,8.35
2022-10-09T22:39:58.795Z,7.90
2022-10-09T22:42:25.549Z,5.45
2022-10-09T22:44:52.222Z,6.90
2022-10-09T22:47:18.979Z,5.18
2022-10-09T22:49:45.835Z,5.38
2022-10-09T22:52:12.564Z,4.55
2022-10-09T22:54:39.401Z,5.68
2022-10-09T22:57:06.182Z,6.07
2022-10-09T22:59:33.017Z,6.90
2022-10-09T23:02:00.444Z,4.00
2022-10-09T23:04:28.869Z,4.78
2022-10-09T23:06:59.701Z,4.15
2022-10-09T23:09:34.129Z,5.13
2022-10-09T23:12:00.976Z,6.13
2022-10-09T23:14:27.902Z,4.75
2022-10-09T23:16:54.638Z,4.55
2022-10-09T23:19:21.393Z,6.45
2022-10-09T23:21:48.120Z,4.45
2022-10-09T23:24:17.650Z,6.05
2022-10-09T23:26:46.373Z,5.60
2022-10-09T23:29:16.769Z,5.00
2022-10-09T23:31:43.585Z,4.60
2022-10-09T23:34:11.400Z,8.20
2022-10-09T23:36:38.307Z,4.97
2022-10-09T23:39:06.384Z,7.00
2022-10-09T23:41:33.475Z,3.97
2022-10-09T23:44:00.210Z,5.07
2022-10-09T23:46:29.412Z,4.75
2022-10-09T23:48:59.604Z,6.53
2022-10-09T23:51:27.563Z,5.75
2022-10-09T23:53:55.004Z,5.72
2022-10-09T23:56:26.529Z,5.55
2022-10-09T23:58:54.586Z,4.93
